sensor_id;sensor_type;location;lat;lon;timestamp;pressure;altitude;pressure_sealevel;temperature;humidity
57024;BME280;42916;54.346;18.562;2024-03-25T00:43:50;98815.29;;;2.93;100.00
57024;BME280;42916;54.346;18.562;2024-03-25T01:17:36;98803.63;;;2.86;100.00
57024;BME280;42916;54.346;18.562;2024-03-25T01:23:51;98804.88;;;2.91;100.00
57024;BME280;42916;54.346;18.562;2024-03-25T02:05:09;98803.75;;;2.74;100.00
57024;BME280;42916;54.346;18.562;2024-03-25T02:20:03;98809.35;;;2.81;100.00
57024;BME280;42916;54.346;18.562;2024-03-25T03:01:36;98818.88;;;2.96;100.00
57024;BME280;42916;54.346;18.562;2024-03-25T03:08:18;98813.86;;;2.98;100.00
57024;BME280;42916;54.346;18.562;2024-03-25T03:14:06;98814.60;;;3.00;100.00
57024;BME280;42916;54.346;18.562;2024-03-25T03:17:43;98821.20;;;3.03;100.00
57024;BME280;42916;54.346;18.562;2024-03-25T03:27:47;98822.85;;;3.09;100.00
57024;BME280;42916;54.346;18.562;2024-03-25T03:30:49;98831.14;;;3.08;100.00
57024;BME280;42916;54.346;18.562;2024-03-25T03:57:22;98835.52;;;3.03;100.00
57024;BME280;42916;54.346;18.562;2024-03-25T04:08:25;98846.64;;;3.09;100.00
57024;BME280;42916;54.346;18.562;2024-03-25T04:15:46;98852.98;;;3.16;100.00
57024;BME280;42916;54.346;18.562;2024-03-25T04:22:49;98855.43;;;3.14;100.00
57024;BME280;42916;54.346;18.562;2024-03-25T04:45:53;98880.30;;;3.17;100.00
57024;BME280;42916;54.346;18.562;2024-03-25T05:54:30;98944.02;;;3.80;100.00
57024;BME280;42916;54.346;18.562;2024-03-25T05:57:21;98947.72;;;3.86;100.00
57024;BME280;42916;54.346;18.562;2024-03-25T05:59:47;98949.35;;;3.91;100.00
57024;BME280;42916;54.346;18.562;2024-03-25T06:02:15;98955.39;;;3.96;100.00
57024;BME280;42916;54.346;18.562;2024-03-25T06:07:30;98957.76;;;4.07;100.00
57024;BME280;42916;54.346;18.562;2024-03-25T06:09:55;98958.88;;;4.13;100.00
57024;BME280;42916;54.346;18.562;2024-03-25T06:12:21;98962.67;;;4.20;100.00
57024;BME280;42916;54.346;18.562;2024-03-25T06:14:49;98962.73;;;4.30;100.00
57024;BME280;42916;54.346;18.562;2024-03-25T06:17:15;98961.70;;;4.41;100.00
57024;BME280;42916;54.346;18.562;2024-03-25T06:19:41;98969.67;;;4.54;100.00
57024;BME280;42916;54.346;18.562;2024-03-25T06:22:07;98971.08;;;4.69;100.00
57024;BME280;42916;54.346;18.562;2024-03-25T06:24:32;98975.96;;;4.80;100.00
57024;BME280;42916;54.346;18.562;2024-03-25T06:26:58;98976.98;;;4.91;100.00
57024;BME280;42916;54.346;18.562;2024-03-25T06:29:28;98975.66;;;4.98;100.00
57024;BME280;42916;54.346;18.562;2024-03-25T06:31:55;98976.03;;;5.03;100.00
57024;BME280;42916;54.346;18.562;2024-03-25T06:34:41;98983.11;;;5.10;100.00
57024;BME280;42916;54.346;18.562;2024-03-25T06:37:09;98977.49;;;5.20;100.00
57024;BME280;42916;54.346;18.562;2024-03-25T06:39:42;98979.51;;;5.26;100.00
57024;BME280;42916;54.346;18.562;2024-03-25T06:42:11;98982.45;;;5.29;100.00
57024;BME280;42916;54.346;18.562;2024-03-25T06:44:38;98986.54;;;5.34;100.00
57024;BME280;42916;54.346;18.562;2024-03-25T06:50:29;98994.41;;;5.40;100.00
57024;BME280;42916;54.346;18.562;2024-03-25T06:52:56;98996.48;;;5.43;100.00
57024;BME280;42916;54.346;18.562;2024-03-25T06:55:22;99002.45;;;5.41;100.00
57024;BME280;42916;54.346;18.562;2024-03-25T06:58:07;99002.32;;;5.34;100.00
57024;BME280;42916;54.346;18.562;2024-03-25T07:03:49;99006.20;;;5.27;100.00
57024;BME280;42916;54.346;18.562;2024-03-25T07:06:52;99008.27;;;5.36;100.00
57024;BME280;42916;54.346;18.562;2024-03-25T07:09:59;99009.70;;;5.42;100.00
57024;BME280;42916;54.346;18.562;2024-03-25T07:19:41;99024.12;;;5.82;100.00
57024;BME280;42916;54.346;18.562;2024-03-25T07:22:33;99025.48;;;5.99;100.00
57024;BME280;42916;54.346;18.562;2024-03-25T07:25:46;99029.20;;;6.07;100.00
57024;BME280;42916;54.346;18.562;2024-03-25T07:29:32;99024.71;;;6.14;100.00
57024;BME280;42916;54.346;18.562;2024-03-25T07:32:01;99032.32;;;6.22;100.00
57024;BME280;42916;54.346;18.562;2024-03-25T07:34:40;99036.06;;;6.32;100.00
57024;BME280;42916;54.346;18.562;2024-03-25T07:37:15;99043.89;;;6.39;100.00
57024;BME280;42916;54.346;18.562;2024-03-25T07:43:50;99038.31;;;6.80;100.00
57024;BME280;42916;54.346;18.562;2024-03-25T07:46:23;99038.22;;;6.98;100.00
57024;BME280;42916;54.346;18.562;2024-03-25T07:48:53;99042.11;;;7.12;100.00
57024;BME280;42916;54.346;18.562;2024-03-25T07:55:19;99048.58;;;7.27;100.00
57024;BME280;42916;54.346;18.562;2024-03-25T07:58:30;99046.70;;;7.31;100.00
57024;BME280;42916;54.346;18.562;2024-03-25T08:05:03;99057.13;;;7.27;100.00
57024;BME280;42916;54.346;18.562;2024-03-25T08:07:32;99056.34;;;7.36;100.00
57024;BME280;42916;54.346;18.562;2024-03-25T08:10:01;99057.17;;;7.40;100.00
57024;BME280;42916;54.346;18.562;2024-03-25T08:12:28;99061.50;;;7.49;100.00
57024;BME280;42916;54.346;18.562;2024-03-25T08:14:53;99064.01;;;7.56;100.00
57024;BME280;42916;54.346;18.562;2024-03-25T08:17:19;99073.13;;;7.64;100.00
57024;BME280;42916;54.346;18.562;2024-03-25T08:19:51;99069.88;;;7.69;100.00
57024;BME280;42916;54.346;18.562;2024-03-25T08:22:17;99070.59;;;7.76;100.00
57024;BME280;42916;54.346;18.562;2024-03-25T08:24:53;99072.17;;;7.83;100.00
57024;BME280;42916;54.346;18.562;2024-03-25T08:27:18;99070.05;;;7.82;99.51
57024;BME280;42916;54.346;18.562;2024-03-25T08:29:47;99071.14;;;7.81;100.00
57024;BME280;42916;54.346;18.562;2024-03-25T08:35:12;99079.71;;;7.82;100.00
57024;BME280;42916;54.346;18.562;2024-03-25T08:37:55;99074.40;;;7.95;100.00
57024;BME280;42916;54.346;18.562;2024-03-25T08:40:55;99080.30;;;8.07;99.18
57024;BME280;42916;54.346;18.562;2024-03-25T08:43:44;99077.42;;;8.22;99.96
57024;BME280;42916;54.346;18.562;2024-03-25T08:46:42;99080.61;;;8.39;99.21
57024;BME280;42916;54.346;18.562;2024-03-25T08:49:38;99079.33;;;8.48;98.19
57024;BME280;42916;54.346;18.562;2024-03-25T08:52:20;99077.63;;;8.56;96.18
57024;BME280;42916;54.346;18.562;2024-03-25T08:58:01;99070.27;;;8.54;95.90
57024;BME280;42916;54.346;18.562;2024-03-25T09:00:31;99066.88;;;8.60;95.50
57024;BME280;42916;54.346;18.562;2024-03-25T09:02:58;99070.66;;;8.70;95.21
57024;BME280;42916;54.346;18.562;2024-03-25T09:08:27;99073.64;;;8.65;94.62
57024;BME280;42916;54.346;18.562;2024-03-25T09:10:56;99077.22;;;8.70;93.99
57024;BME280;42916;54.346;18.562;2024-03-25T09:14:01;99075.74;;;8.74;93.90
57024;BME280;42916;54.346;18.562;2024-03-25T09:17:09;99077.52;;;8.94;93.78
57024;BME280;42916;54.346;18.562;2024-03-25T09:19:54;99084.80;;;9.19;93.25
57024;BME280;42916;54.346;18.562;2024-03-25T09:22:50;99086.31;;;9.32;93.46
57024;BME280;42916;54.346;18.562;2024-03-25T09:25:34;99090.91;;;9.47;93.34
57024;BME280;42916;54.346;18.562;2024-03-25T09:28:01;99093.29;;;9.57;92.56
57024;BME280;42916;54.346;18.562;2024-03-25T09:30:29;99090.44;;;9.70;91.30
57024;BME280;42916;54.346;18.562;2024-03-25T09:32:56;99093.39;;;9.75;90.41
57024;BME280;42916;54.346;18.562;2024-03-25T09:35:29;99095.44;;;9.77;89.74
57024;BME280;42916;54.346;18.562;2024-03-25T09:38:23;99097.11;;;9.79;87.98
57024;BME280;42916;54.346;18.562;2024-03-25T09:40:55;99095.09;;;9.81;88.28
57024;BME280;42916;54.346;18.562;2024-03-25T09:46:56;99104.66;;;9.96;87.06
57024;BME280;42916;54.346;18.562;2024-03-25T09:49:28;99108.02;;;9.99;87.79
57024;BME280;42916;54.346;18.562;2024-03-25T09:52:25;99108.75;;;10.02;88.61
57024;BME280;42916;54.346;18.562;2024-03-25T09:55:14;99107.58;;;10.04;88.70
57024;BME280;42916;54.346;18.562;2024-03-25T09:57:57;99112.19;;;10.19;88.89
57024;BME280;42916;54.346;18.562;2024-03-25T10:00:26;99111.50;;;10.25;86.59
57024;BME280;42916;54.346;18.562;2024-03-25T10:02:56;99111.76;;;10.26;86.25
57024;BME280;42916;54.346;18.562;2024-03-25T10:05:28;99112.92;;;10.23;84.21
57024;BME280;42916;54.346;18.562;2024-03-25T10:08:44;99114.02;;;10.15;83.09
57024;BME280;42916;54.346;18.562;2024-03-25T10:11:08;99117.67;;;10.00;82.14
57024;BME280;42916;54.346;18.562;2024-03-25T10:14:04;99115.88;;;9.98;83.65
57024;BME280;42916;54.346;18.562;2024-03-25T10:20:04;99121.82;;;10.06;83.00
57024;BME280;42916;54.346;18.562;2024-03-25T10:22:45;99123.53;;;10.01;80.52
57024;BME280;42916;54.346;18.562;2024-03-25T10:25:30;99124.35;;;10.01;81.38
57024;BME280;42916;54.346;18.562;2024-03-25T10:28:39;99125.08;;;10.12;82.43
57024;BME280;42916;54.346;18.562;2024-03-25T10:34:07;99131.89;;;10.34;80.83
57024;BME280;42916;54.346;18.562;2024-03-25T10:37:03;99129.90;;;10.31;80.38
57024;BME280;42916;54.346;18.562;2024-03-25T10:46:10;99128.27;;;10.01;80.58
57024;BME280;42916;54.346;18.562;2024-03-25T10:52:21;99134.09;;;9.62;80.66
57024;BME280;42916;54.346;18.562;2024-03-25T10:55:10;99135.05;;;9.46;81.29
57024;BME280;42916;54.346;18.562;2024-03-25T10:57:58;99140.27;;;9.30;82.09
57024;BME280;42916;54.346;18.562;2024-03-25T11:00:52;99141.85;;;9.13;83.06
57024;BME280;42916;54.346;18.562;2024-03-25T11:07:35;99156.38;;;8.42;83.54
57024;BME280;42916;54.346;18.562;2024-03-25T11:10:52;99162.45;;;7.93;85.01
57024;BME280;42916;54.346;18.562;2024-03-25T11:13:00;99169.37;;;7.50;86.66
57024;BME280;42916;54.346;18.562;2024-03-25T11:41:47;99167.65;;;5.10;99.28
57024;BME280;42916;54.346;18.562;2024-03-25T11:44:44;99168.33;;;5.42;100.00
57024;BME280;42916;54.346;18.562;2024-03-25T11:53:57;99172.76;;;5.99;100.00
57024;BME280;42916;54.346;18.562;2024-03-25T11:56:26;99171.23;;;6.05;100.00
57024;BME280;42916;54.346;18.562;2024-03-25T11:58:52;99175.52;;;6.06;100.00
57024;BME280;42916;54.346;18.562;2024-03-25T12:01:18;99173.38;;;6.03;100.00
57024;BME280;42916;54.346;18.562;2024-03-25T12:04:18;99173.21;;;6.02;100.00
57024;BME280;42916;54.346;18.562;2024-03-25T12:14:27;99182.45;;;6.09;100.00
57024;BME280;42916;54.346;18.562;2024-03-25T12:24:35;99182.06;;;6.03;100.00
57024;BME280;42916;54.346;18.562;2024-03-25T12:27:38;99188.31;;;6.12;100.00
57024;BME280;42916;54.346;18.562;2024-03-25T12:34:38;99191.75;;;6.21;100.00
57024;BME280;42916;54.346;18.562;2024-03-25T12:37:39;99195.21;;;6.28;100.00
57024;BME280;42916;54.346;18.562;2024-03-25T12:40:27;99200.02;;;6.40;100.00
57024;BME280;42916;54.346;18.562;2024-03-25T12:46:25;99194.84;;;6.76;100.00
57024;BME280;42916;54.346;18.562;2024-03-25T12:49:02;99192.77;;;6.91;100.00
57024;BME280;42916;54.346;18.562;2024-03-25T12:51:56;99197.92;;;7.09;100.00
57024;BME280;42916;54.346;18.562;2024-03-25T12:57:46;99200.45;;;7.41;100.00
57024;BME280;42916;54.346;18.562;2024-03-25T13:00:16;99201.42;;;7.41;100.00
57024;BME280;42916;54.346;18.562;2024-03-25T13:02:46;99196.92;;;7.49;100.00
57024;BME280;42916;54.346;18.562;2024-03-25T13:08:55;99204.05;;;7.59;100.00
57024;BME280;42916;54.346;18.562;2024-03-25T13:11:27;99206.98;;;7.62;100.00
57024;BME280;42916;54.346;18.562;2024-03-25T13:13:54;99210.64;;;7.54;100.00
57024;BME280;42916;54.346;18.562;2024-03-25T13:16:21;99213.35;;;7.43;100.00
57024;BME280;42916;54.346;18.562;2024-03-25T13:21:57;99214.34;;;7.17;100.00
57024;BME280;42916;54.346;18.562;2024-03-25T13:27:40;99218.42;;;7.03;100.00
57024;BME280;42916;54.346;18.562;2024-03-25T13:30:07;99220.54;;;6.94;100.00
57024;BME280;42916;54.346;18.562;2024-03-25T13:32:48;99220.73;;;6.91;100.00
57024;BME280;42916;54.346;18.562;2024-03-25T13:35:31;99223.63;;;6.88;100.00
57024;BME280;42916;54.346;18.562;2024-03-25T13:41:12;99231.11;;;6.75;100.00
57024;BME280;42916;54.346;18.562;2024-03-25T13:43:58;99234.36;;;6.64;100.00
57024;BME280;42916;54.346;18.562;2024-03-25T13:46:52;99238.17;;;6.61;100.00
57024;BME280;42916;54.346;18.562;2024-03-25T13:52:04;99236.23;;;6.54;100.00
57024;BME280;42916;54.346;18.562;2024-03-25T13:54:31;99238.77;;;6.55;100.00
57024;BME280;42916;54.346;18.562;2024-03-25T13:57:01;99236.86;;;6.60;100.00
57024;BME280;42916;54.346;18.562;2024-03-25T14:06:46;99232.89;;;6.49;100.00
57024;BME280;42916;54.346;18.562;2024-03-25T14:09:50;99234.02;;;6.38;100.00
57024;BME280;42916;54.346;18.562;2024-03-25T14:12:15;99242.49;;;6.30;100.00
57024;BME280;42916;54.346;18.562;2024-03-25T14:14:59;99247.31;;;6.27;100.00
57024;BME280;42916;54.346;18.562;2024-03-25T14:17:27;99250.71;;;6.31;100.00
57024;BME280;42916;54.346;18.562;2024-03-25T14:22:57;99259.00;;;6.28;100.00
57024;BME280;42916;54.346;18.562;2024-03-25T14:25:23;99262.14;;;6.23;100.00
57024;BME280;42916;54.346;18.562;2024-03-25T14:27:49;99262.63;;;6.22;100.00
57024;BME280;42916;54.346;18.562;2024-03-25T14:30:14;99260.64;;;6.19;100.00
57024;BME280;42916;54.346;18.562;2024-03-25T14:32:42;99258.88;;;6.21;100.00
57024;BME280;42916;54.346;18.562;2024-03-25T14:35:08;99258.79;;;6.24;100.00
57024;BME280;42916;54.346;18.562;2024-03-25T14:37:36;99258.85;;;6.22;100.00
57024;BME280;42916;54.346;18.562;2024-03-25T14:40:02;99261.00;;;6.22;100.00
57024;BME280;42916;54.346;18.562;2024-03-25T14:42:31;99263.14;;;6.21;100.00
57024;BME280;42916;54.346;18.562;2024-03-25T14:45:28;99265.02;;;6.25;100.00
57024;BME280;42916;54.346;18.562;2024-03-25T14:47:58;99269.70;;;6.30;100.00
57024;BME280;42916;54.346;18.562;2024-03-25T14:50:38;99273.03;;;6.31;100.00
57024;BME280;42916;54.346;18.562;2024-03-25T14:53:05;99277.39;;;6.24;100.00
57024;BME280;42916;54.346;18.562;2024-03-25T14:55:35;99278.35;;;6.19;100.00
57024;BME280;42916;54.346;18.562;2024-03-25T14:58:09;99280.64;;;6.10;100.00
57024;BME280;42916;54.346;18.562;2024-03-25T15:00:39;99285.55;;;5.97;100.00
57024;BME280;42916;54.346;18.562;2024-03-25T15:03:08;99289.85;;;5.83;100.00
57024;BME280;42916;54.346;18.562;2024-03-25T15:05:36;99292.52;;;5.73;100.00
57024;BME280;42916;54.346;18.562;2024-03-25T15:08:03;99291.89;;;5.65;100.00
57024;BME280;42916;54.346;18.562;2024-03-25T15:10:37;99288.30;;;5.59;100.00
57024;BME280;42916;54.346;18.562;2024-03-25T15:13:08;99291.08;;;5.53;100.00
57024;BME280;42916;54.346;18.562;2024-03-25T15:15:39;99291.70;;;5.46;100.00
57024;BME280;42916;54.346;18.562;2024-03-25T15:18:06;99294.52;;;5.40;100.00
57024;BME280;42916;54.346;18.562;2024-03-25T15:20:34;99295.07;;;5.33;100.00
57024;BME280;42916;54.346;18.562;2024-03-25T15:23:01;99295.29;;;5.30;100.00
57024;BME280;42916;54.346;18.562;2024-03-25T15:25:29;99300.31;;;5.26;100.00
57024;BME280;42916;54.346;18.562;2024-03-25T15:28:25;99304.06;;;5.21;100.00
57024;BME280;42916;54.346;18.562;2024-03-25T15:33:58;99302.62;;;5.07;100.00
57024;BME280;42916;54.346;18.562;2024-03-25T15:36:27;99307.13;;;5.06;100.00
57024;BME280;42916;54.346;18.562;2024-03-25T15:39:28;99303.33;;;5.04;100.00
57024;BME280;42916;54.346;18.562;2024-03-25T15:42:04;99307.42;;;5.06;100.00
57024;BME280;42916;54.346;18.562;2024-03-25T15:44:36;99306.13;;;5.09;100.00
57024;BME280;42916;54.346;18.562;2024-03-25T15:47:08;99308.47;;;5.13;100.00
57024;BME280;42916;54.346;18.562;2024-03-25T15:50:07;99307.84;;;5.14;100.00
57024;BME280;42916;54.346;18.562;2024-03-25T15:56:10;99312.59;;;5.47;100.00
57024;BME280;42916;54.346;18.562;2024-03-25T15:58:50;99308.80;;;5.59;100.00
57024;BME280;42916;54.346;18.562;2024-03-25T16:01:16;99310.46;;;5.74;100.00
57024;BME280;42916;54.346;18.562;2024-03-25T16:03:43;99312.27;;;5.85;100.00
57024;BME280;42916;54.346;18.562;2024-03-25T16:06:13;99310.95;;;5.91;100.00
57024;BME280;42916;54.346;18.562;2024-03-25T16:08:41;99316.05;;;5.90;100.00
57024;BME280;42916;54.346;18.562;2024-03-25T16:11:20;99311.29;;;5.89;100.00
57024;BME280;42916;54.346;18.562;2024-03-25T16:13:54;99319.25;;;5.91;100.00
57024;BME280;42916;54.346;18.562;2024-03-25T16:16:24;99319.49;;;5.93;100.00
57024;BME280;42916;54.346;18.562;2024-03-25T16:18:56;99319.23;;;5.93;100.00
57024;BME280;42916;54.346;18.562;2024-03-25T16:21:23;99318.99;;;5.92;100.00
57024;BME280;42916;54.346;18.562;2024-03-25T16:23:59;99319.35;;;5.86;100.00
57024;BME280;42916;54.346;18.562;2024-03-25T16:26:41;99315.61;;;5.77;100.00
57024;BME280;42916;54.346;18.562;2024-03-25T16:29:10;99312.77;;;5.69;100.00
57024;BME280;42916;54.346;18.562;2024-03-25T16:32:18;99313.30;;;5.57;100.00
57024;BME280;42916;54.346;18.562;2024-03-25T16:34:47;99313.70;;;5.38;100.00
57024;BME280;42916;54.346;18.562;2024-03-25T16:37:34;99318.66;;;5.21;100.00
57024;BME280;42916;54.346;18.562;2024-03-25T16:43:44;99321.82;;;4.72;100.00
57024;BME280;42916;54.346;18.562;2024-03-25T16:46:10;99328.15;;;4.53;100.00
57024;BME280;42916;54.346;18.562;2024-03-25T16:48:51;99334.94;;;4.38;100.00
57024;BME280;42916;54.346;18.562;2024-03-25T16:54:46;99335.58;;;4.21;100.00
57024;BME280;42916;54.346;18.562;2024-03-25T16:57:22;99336.27;;;4.13;100.00
57024;BME280;42916;54.346;18.562;2024-03-25T16:59:51;99338.58;;;4.05;100.00
57024;BME280;42916;54.346;18.562;2024-03-25T17:02:20;99345.17;;;3.94;100.00
57024;BME280;42916;54.346;18.562;2024-03-25T17:04:55;99345.64;;;3.85;100.00
57024;BME280;42916;54.346;18.562;2024-03-25T17:07:31;99351.50;;;3.82;100.00
57024;BME280;42916;54.346;18.562;2024-03-25T17:10:22;99353.22;;;3.74;100.00
57024;BME280;42916;54.346;18.562;2024-03-25T17:15:59;99358.92;;;3.57;100.00
57024;BME280;42916;54.346;18.562;2024-03-25T17:18:31;99357.09;;;3.48;100.00
57024;BME280;42916;54.346;18.562;2024-03-25T17:23:58;99363.74;;;3.31;100.00
57024;BME280;42916;54.346;18.562;2024-03-25T17:26:34;99367.82;;;3.28;100.00
57024;BME280;42916;54.346;18.562;2024-03-25T17:29:25;99373.00;;;3.27;100.00
57024;BME280;42916;54.346;18.562;2024-03-25T17:32:04;99373.02;;;3.26;100.00
57024;BME280;42916;54.346;18.562;2024-03-25T17:34:55;99376.55;;;3.27;100.00
57024;BME280;42916;54.346;18.562;2024-03-25T17:37:24;99376.33;;;3.29;100.00
57024;BME280;42916;54.346;18.562;2024-03-25T17:46:17;99386.46;;;3.34;100.00
57024;BME280;42916;54.346;18.562;2024-03-25T17:48:52;99390.70;;;3.34;100.00
57024;BME280;42916;54.346;18.562;2024-03-25T17:51:22;99395.80;;;3.36;100.00
57024;BME280;42916;54.346;18.562;2024-03-25T17:54:18;99402.14;;;3.38;100.00
57024;BME280;42916;54.346;18.562;2024-03-25T17:56:45;99410.02;;;3.39;100.00
57024;BME280;42916;54.346;18.562;2024-03-25T17:59:31;99412.20;;;3.40;100.00
57024;BME280;42916;54.346;18.562;2024-03-25T18:01:58;99415.36;;;3.47;100.00
57024;BME280;42916;54.346;18.562;2024-03-25T18:04:34;99415.56;;;3.54;100.00
57024;BME280;42916;54.346;18.562;2024-03-25T18:07:15;99417.41;;;3.56;100.00
57024;BME280;42916;54.346;18.562;2024-03-25T18:09:52;99416.75;;;3.58;100.00
57024;BME280;42916;54.346;18.562;2024-03-25T18:12:22;99419.88;;;3.61;100.00
57024;BME280;42916;54.346;18.562;2024-03-25T18:14:51;99417.46;;;3.63;100.00
57024;BME280;42916;54.346;18.562;2024-03-25T18:20:00;99419.15;;;3.71;100.00
57024;BME280;42916;54.346;18.562;2024-03-25T18:22:47;99417.69;;;3.75;100.00
57024;BME280;42916;54.346;18.562;2024-03-25T18:25:38;99416.91;;;3.79;100.00
57024;BME280;42916;54.346;18.562;2024-03-25T18:31:34;99412.84;;;3.82;100.00
57024;BME280;42916;54.346;18.562;2024-03-25T18:36:43;99416.00;;;3.80;100.00
57024;BME280;42916;54.346;18.562;2024-03-25T18:39:12;99418.76;;;3.80;100.00
57024;BME280;42916;54.346;18.562;2024-03-25T18:41:40;99418.21;;;3.77;100.00
57024;BME280;42916;54.346;18.562;2024-03-25T18:44:07;99417.30;;;3.75;100.00
57024;BME280;42916;54.346;18.562;2024-03-25T18:47:04;99418.39;;;3.69;100.00
57024;BME280;42916;54.346;18.562;2024-03-25T18:49:42;99424.95;;;3.64;100.00
57024;BME280;42916;54.346;18.562;2024-03-25T18:52:25;99428.07;;;3.54;100.00
57024;BME280;42916;54.346;18.562;2024-03-25T18:54:55;99428.99;;;3.46;100.00
57024;BME280;42916;54.346;18.562;2024-03-25T18:57:32;99430.48;;;3.41;100.00
57024;BME280;42916;54.346;18.562;2024-03-25T19:00:20;99434.67;;;3.34;100.00
57024;BME280;42916;54.346;18.562;2024-03-25T19:03:02;99438.96;;;3.29;100.00
57024;BME280;42916;54.346;18.562;2024-03-25T19:05:34;99442.58;;;3.25;100.00
57024;BME280;42916;54.346;18.562;2024-03-25T19:08:02;99450.16;;;3.19;100.00
57024;BME280;42916;54.346;18.562;2024-03-25T19:13:25;99450.08;;;3.03;100.00
57024;BME280;42916;54.346;18.562;2024-03-25T19:16:01;99453.71;;;2.94;100.00
57024;BME280;42916;54.346;18.562;2024-03-25T19:18:31;99446.14;;;2.86;100.00
57024;BME280;42916;54.346;18.562;2024-03-25T19:21:01;99449.65;;;2.82;100.00
57024;BME280;42916;54.346;18.562;2024-03-25T19:23:35;99447.42;;;2.76;100.00
57024;BME280;42916;54.346;18.562;2024-03-25T19:26:22;99452.01;;;2.70;100.00
57024;BME280;42916;54.346;18.562;2024-03-25T19:29:03;99450.41;;;2.65;100.00
57024;BME280;42916;54.346;18.562;2024-03-25T19:31:55;99449.52;;;2.58;100.00
57024;BME280;42916;54.346;18.562;2024-03-25T19:34:50;99453.15;;;2.51;100.00
57024;BME280;42916;54.346;18.562;2024-03-25T19:37:40;99453.97;;;2.46;100.00
57024;BME280;42916;54.346;18.562;2024-03-25T19:40:31;99453.19;;;2.39;100.00
57024;BME280;42916;54.346;18.562;2024-03-25T19:42:58;99455.20;;;2.35;100.00
57024;BME280;42916;54.346;18.562;2024-03-25T19:45:35;99457.16;;;2.34;100.00
57024;BME280;42916;54.346;18.562;2024-03-25T19:51:26;99458.90;;;2.19;100.00
57024;BME280;42916;54.346;18.562;2024-03-25T19:54:34;99462.15;;;2.13;100.00
57024;BME280;42916;54.346;18.562;2024-03-25T19:57:23;99462.01;;;2.06;100.00
57024;BME280;42916;54.346;18.562;2024-03-25T20:00:00;99468.55;;;2.00;100.00
57024;BME280;42916;54.346;18.562;2024-03-25T20:02:33;99463.59;;;1.93;100.00
57024;BME280;42916;54.346;18.562;2024-03-25T20:05:00;99465.13;;;1.87;100.00
57024;BME280;42916;54.346;18.562;2024-03-25T20:07:46;99464.69;;;1.82;100.00
57024;BME280;42916;54.346;18.562;2024-03-25T20:10:27;99468.30;;;1.75;100.00
57024;BME280;42916;54.346;18.562;2024-03-25T20:12:54;99471.52;;;1.70;100.00
57024;BME280;42916;54.346;18.562;2024-03-25T20:15:29;99470.65;;;1.65;100.00
57024;BME280;42916;54.346;18.562;2024-03-25T20:18:13;99474.42;;;1.62;100.00
57024;BME280;42916;54.346;18.562;2024-03-25T20:20:43;99471.75;;;1.62;100.00
57024;BME280;42916;54.346;18.562;2024-03-25T20:23:11;99476.10;;;1.61;100.00
57024;BME280;42916;54.346;18.562;2024-03-25T20:25:58;99475.09;;;1.58;100.00
57024;BME280;42916;54.346;18.562;2024-03-25T20:28:26;99477.05;;;1.54;100.00
57024;BME280;42916;54.346;18.562;2024-03-25T20:30:58;99480.11;;;1.54;100.00
57024;BME280;42916;54.346;18.562;2024-03-25T20:33:25;99478.86;;;1.55;100.00
57024;BME280;42916;54.346;18.562;2024-03-25T20:35:57;99479.20;;;1.54;100.00
57024;BME280;42916;54.346;18.562;2024-03-25T20:44:58;99494.83;;;1.48;100.00
57024;BME280;42916;54.346;18.562;2024-03-25T20:54:37;99499.61;;;1.42;100.00
57024;BME280;42916;54.346;18.562;2024-03-25T21:01:49;99497.80;;;1.36;100.00
57024;BME280;42916;54.346;18.562;2024-03-25T21:14:43;99505.63;;;1.06;100.00
57024;BME280;42916;54.346;18.562;2024-03-25T21:17:17;99505.19;;;1.03;100.00
57024;BME280;42916;54.346;18.562;2024-03-25T21:19:48;99506.95;;;0.97;100.00
57024;BME280;42916;54.346;18.562;2024-03-25T21:39:49;99516.02;;;0.79;100.00
57024;BME280;42916;54.346;18.562;2024-03-25T21:52:55;99517.55;;;0.60;100.00
57024;BME280;42916;54.346;18.562;2024-03-25T22:19:46;99512.15;;;0.34;100.00
57024;BME280;42916;54.346;18.562;2024-03-25T22:22:15;99517.23;;;0.28;100.00
57024;BME280;42916;54.346;18.562;2024-03-25T22:24:59;99526.95;;;0.23;100.00
57024;BME280;42916;54.346;18.562;2024-03-25T22:37:34;99527.33;;;0.14;100.00
57024;BME280;42916;54.346;18.562;2024-03-25T22:43:23;99527.45;;;0.13;100.00
57024;BME280;42916;54.346;18.562;2024-03-25T22:50:12;99535.98;;;0.12;100.00
57024;BME280;42916;54.346;18.562;2024-03-25T23:03:46;99544.69;;;0.00;100.00
57024;BME280;42916;54.346;18.562;2024-03-25T23:10:15;99547.77;;;0.04;100.00
57024;BME280;42916;54.346;18.562;2024-03-25T23:12:48;99548.77;;;0.06;100.00
57024;BME280;42916;54.346;18.562;2024-03-25T23:15:19;99549.48;;;0.03;100.00
57024;BME280;42916;54.346;18.562;2024-03-25T23:17:51;99552.90;;;-0.04;100.00
57024;BME280;42916;54.346;18.562;2024-03-25T23:21:01;99559.73;;;-0.10;100.00
57024;BME280;42916;54.346;18.562;2024-03-25T23:23:32;99559.73;;;-0.14;100.00
57024;BME280;42916;54.346;18.562;2024-03-25T23:37:29;99568.54;;;-0.25;100.00
57024;BME280;42916;54.346;18.562;2024-03-25T23:41:06;99567.18;;;-0.28;100.00
57024;BME280;42916;54.346;18.562;2024-03-25T23:46:55;99563.67;;;-0.39;100.00
57024;BME280;42916;54.346;18.562;2024-03-25T23:49:27;99566.67;;;-0.41;100.00
57024;BME280;42916;54.346;18.562;2024-03-25T23:52:06;99566.84;;;-0.42;100.00
